createdAt,value
2022-12-17T00:00:26.031Z,33.93
2022-12-17T00:03:19.357Z,33.67
2022-12-17T00:06:04.576Z,33.77
2022-12-17T00:08:49.425Z,33.17
2022-12-17T00:11:34.327Z,34.40
2022-12-17T00:14:19.473Z,33.00
2022-12-17T00:17:04.421Z,32.30
2022-12-17T00:19:49.226Z,32.70
2022-12-17T00:22:34.072Z,32.87
2022-12-17T00:25:18.967Z,31.17
2022-12-17T00:28:03.910Z,29.53
2022-12-17T00:30:49.022Z,30.87
2022-12-17T00:33:37.358Z,28.93
2022-12-17T00:36:22.939Z,28.07
2022-12-17T00:39:07.782Z,28.17
2022-12-17T00:42:03.092Z,27.77
2022-12-17T00:44:47.897Z,27.47
2022-12-17T00:47:32.811Z,25.97
2022-12-17T00:50:17.700Z,25.53
2022-12-17T00:53:02.583Z,24.47
2022-12-17T00:55:47.469Z,26.20
2022-12-17T00:58:32.749Z,28.00
2022-12-17T01:01:18.568Z,27.57
2022-12-17T01:04:03.678Z,27.73
2022-12-17T01:06:48.483Z,28.77
2022-12-17T01:09:33.253Z,29.90
2022-12-17T01:12:18.100Z,28.17
2022-12-17T01:15:02.957Z,27.27
2022-12-17T01:17:47.733Z,29.47
2022-12-17T01:20:32.620Z,28.20
2022-12-17T01:23:17.415Z,28.83
2022-12-17T01:26:02.084Z,27.27
2022-12-17T01:28:51.303Z,27.90
2022-12-17T01:31:36.742Z,27.67
2022-12-17T01:34:21.897Z,28.77
2022-12-17T01:37:06.565Z,27.97
2022-12-17T01:39:51.399Z,28.07
2022-12-17T01:42:36.180Z,29.30
2022-12-17T01:45:21.651Z,29.57
2022-12-17T01:48:09.344Z,29.50
2022-12-17T01:50:57.151Z,29.37
2022-12-17T01:53:43.931Z,29.73
2022-12-17T01:56:29.190Z,28.30
2022-12-17T01:59:14.326Z,30.60
2022-12-17T02:01:59.351Z,28.20
2022-12-17T02:04:44.211Z,28.93
2022-12-17T02:07:38.266Z,27.07
2022-12-17T02:10:42.191Z,29.40
2022-12-17T02:13:47.053Z,29.93
2022-12-17T02:16:33.636Z,28.27
2022-12-17T02:19:21.807Z,28.37
2022-12-17T02:22:10.007Z,26.53
2022-12-17T02:25:02.322Z,27.27
2022-12-17T02:27:47.539Z,27.67
2022-12-17T02:30:32.291Z,27.13
2022-12-17T02:33:17.531Z,27.43
2022-12-17T02:36:08.109Z,28.60
2022-12-17T02:38:53.117Z,28.00
2022-12-17T02:41:43.991Z,28.20
2022-12-17T02:44:29.896Z,27.93
2022-12-17T02:47:15.186Z,27.93
2022-12-17T02:49:59.989Z,25.87
2022-12-17T02:52:45.810Z,24.97
2022-12-17T02:55:31.225Z,25.63
2022-12-17T02:58:16.102Z,24.17
2022-12-17T03:01:00.918Z,24.00
2022-12-17T03:03:50.077Z,23.43
2022-12-17T03:06:35.405Z,22.83
2022-12-17T03:09:20.249Z,24.87
2022-12-17T03:12:05.103Z,22.00
2022-12-17T03:14:50.039Z,21.73
2022-12-17T03:17:34.703Z,21.10
2022-12-17T03:20:19.489Z,23.20
2022-12-17T03:23:04.312Z,21.57
2022-12-17T03:25:49.117Z,20.73
2022-12-17T03:28:33.838Z,20.80
2022-12-17T03:31:19.179Z,19.73
2022-12-17T03:34:04.801Z,18.67
2022-12-17T03:36:49.468Z,20.07
2022-12-17T03:39:34.308Z,18.50
2022-12-17T03:42:19.007Z,18.67
2022-12-17T03:45:03.776Z,18.87
2022-12-17T03:47:48.516Z,19.20
2022-12-17T03:50:33.400Z,18.87
2022-12-17T03:53:18.716Z,20.10
2022-12-17T03:56:03.474Z,18.77
2022-12-17T03:58:48.198Z,16.90
2022-12-17T04:01:33.212Z,16.73
2022-12-17T04:04:18.383Z,16.03
2022-12-17T04:07:03.070Z,16.03
2022-12-17T04:09:47.936Z,14.97
2022-12-17T04:12:32.642Z,15.63
2022-12-17T04:15:17.720Z,15.77
2022-12-17T04:18:02.681Z,15.33
2022-12-17T04:20:47.466Z,15.30
2022-12-17T04:23:32.324Z,16.07
2022-12-17T04:26:17.438Z,15.70
2022-12-17T04:29:02.329Z,18.00
2022-12-17T04:31:47.086Z,16.87
2022-12-17T04:34:31.967Z,15.67
2022-12-17T04:37:16.635Z,17.23
2022-12-17T04:40:01.612Z,18.30
2022-12-17T04:42:46.374Z,17.47
2022-12-17T04:45:31.417Z,16.67
2022-12-17T04:48:19.839Z,17.23
2022-12-17T04:51:05.533Z,17.43
2022-12-17T04:53:52.047Z,17.50
2022-12-17T04:56:36.692Z,17.00
2022-12-17T04:59:21.517Z,17.60
2022-12-17T05:02:06.387Z,18.73
2022-12-17T05:04:51.417Z,16.70
2022-12-17T05:07:36.372Z,17.83
2022-12-17T05:10:21.122Z,16.00
2022-12-17T05:13:05.938Z,15.70
2022-12-17T05:15:53.284Z,17.50
2022-12-17T05:18:38.421Z,18.60
2022-12-17T05:21:23.343Z,19.20
2022-12-17T05:24:08.133Z,20.03
2022-12-17T05:26:53.080Z,19.87
2022-12-17T05:29:38.901Z,18.07
2022-12-17T05:32:23.769Z,17.93
2022-12-17T05:35:08.496Z,17.60
2022-12-17T05:37:53.344Z,16.83
2022-12-17T05:40:38.082Z,16.30
2022-12-17T05:43:24.326Z,18.53
2022-12-17T05:46:09.748Z,18.13
2022-12-17T05:48:55.065Z,18.80
2022-12-17T05:51:40.495Z,18.87
2022-12-17T05:54:26.274Z,18.17
2022-12-17T05:57:11.314Z,18.77
2022-12-17T05:59:55.923Z,20.50
2022-12-17T06:02:41.313Z,18.53
2022-12-17T06:05:26.565Z,18.03
2022-12-17T06:08:11.308Z,17.77
2022-12-17T06:10:56.048Z,19.23
2022-12-17T06:13:40.870Z,17.00
2022-12-17T06:16:36.335Z,16.57
2022-12-17T06:19:21.027Z,15.93
2022-12-17T06:22:05.799Z,15.80
2022-12-17T06:24:50.531Z,16.13
2022-12-17T06:27:35.432Z,18.07
2022-12-17T06:30:20.174Z,18.20
2022-12-17T06:33:05.129Z,17.30
2022-12-17T06:35:49.751Z,17.93
2022-12-17T06:38:34.554Z,17.57
2022-12-17T06:41:19.730Z,17.60
2022-12-17T06:44:04.530Z,18.40
2022-12-17T06:46:49.354Z,18.00
2022-12-17T06:49:34.107Z,18.10
2022-12-17T06:52:19.030Z,18.47
2022-12-17T06:55:03.744Z,17.60
2022-12-17T06:57:50.513Z,18.60
2022-12-17T07:00:35.589Z,18.17
2022-12-17T07:03:23.451Z,18.87
2022-12-17T07:06:08.558Z,20.63
2022-12-17T07:08:53.355Z,21.00
2022-12-17T07:11:39.393Z,20.53
2022-12-17T07:14:24.583Z,19.83
2022-12-17T07:17:09.408Z,19.60
2022-12-17T07:19:54.422Z,19.73
2022-12-17T07:22:39.055Z,19.00
2022-12-17T07:25:23.823Z,19.23
2022-12-17T07:28:12.720Z,19.13
2022-12-17T07:30:57.507Z,20.77
2022-12-17T07:33:42.362Z,19.30
2022-12-17T07:36:29.586Z,18.70
2022-12-17T07:39:14.473Z,19.40
2022-12-17T07:41:59.234Z,17.90
2022-12-17T07:44:43.963Z,19.40
2022-12-17T07:47:28.807Z,18.20
2022-12-17T07:50:13.639Z,20.13
2022-12-17T07:52:58.562Z,19.00
2022-12-17T07:55:57.018Z,18.93
2022-12-17T07:58:41.984Z,19.67
2022-12-17T08:01:26.854Z,18.33
2022-12-17T08:04:11.871Z,18.43
2022-12-17T08:07:01.651Z,18.17
2022-12-17T08:09:49.062Z,17.97
2022-12-17T08:12:33.842Z,18.80
2022-12-17T08:15:18.747Z,17.33
2022-12-17T08:18:03.622Z,17.20
2022-12-17T08:20:48.578Z,18.57
2022-12-17T08:23:33.589Z,19.13
2022-12-17T08:26:18.712Z,18.33
2022-12-17T08:29:03.490Z,18.30
2022-12-17T08:31:48.306Z,18.20
2022-12-17T08:34:34.831Z,16.73
2022-12-17T08:37:19.669Z,18.40
2022-12-17T08:40:04.506Z,18.43
2022-12-17T08:42:50.020Z,17.70
2022-12-17T08:45:34.940Z,17.53
2022-12-17T08:48:24.634Z,16.83
2022-12-17T08:51:09.441Z,17.07
2022-12-17T08:53:54.435Z,18.20
2022-12-17T08:56:39.137Z,17.37
2022-12-17T08:59:23.974Z,18.70
2022-12-17T09:02:08.885Z,20.27
2022-12-17T09:04:53.870Z,18.50
2022-12-17T09:07:38.807Z,19.47
2022-12-17T09:10:23.709Z,18.43
2022-12-17T09:13:08.636Z,19.00
2022-12-17T09:15:53.481Z,17.87
2022-12-17T09:18:39.951Z,18.27
2022-12-17T09:21:25.194Z,18.03
2022-12-17T09:24:29.843Z,17.97
2022-12-17T09:27:14.912Z,18.33
2022-12-17T09:30:14.623Z,19.03
2022-12-17T09:32:59.396Z,18.93
2022-12-17T09:35:46.669Z,17.93
2022-12-17T09:38:35.416Z,20.13
2022-12-17T09:41:32.481Z,19.13
2022-12-17T09:44:25.469Z,19.90
2022-12-17T09:47:15.983Z,21.10
2022-12-17T09:50:00.789Z,20.47
2022-12-17T09:52:48.307Z,20.03
2022-12-17T09:56:05.497Z,20.87
2022-12-17T09:58:53.208Z,20.93
2022-12-17T10:01:39.067Z,21.90
2022-12-17T10:04:29.985Z,20.07
2022-12-17T10:07:15.049Z,20.27
2022-12-17T10:10:00.442Z,21.70
2022-12-17T10:12:45.208Z,21.23
2022-12-17T10:15:32.468Z,22.50
2022-12-17T10:24:36.016Z,21.70
2022-12-17T10:27:27.545Z,22.80
2022-12-17T10:30:12.407Z,21.93
2022-12-17T10:32:57.346Z,21.80
2022-12-17T10:35:44.113Z,23.27
2022-12-17T10:38:40.074Z,24.60
2022-12-17T10:41:37.396Z,22.27
2022-12-17T10:44:37.264Z,22.70
2022-12-17T10:47:22.103Z,21.50
2022-12-17T10:50:15.479Z,21.43
2022-12-17T10:53:02.305Z,23.40
2022-12-17T10:55:48.088Z,21.63
2022-12-17T10:58:38.691Z,23.00
2022-12-17T11:01:25.033Z,22.20
2022-12-17T11:04:17.339Z,21.70
2022-12-17T11:07:04.622Z,21.70
2022-12-17T11:10:10.202Z,22.83
2022-12-17T11:13:04.749Z,21.50
2022-12-17T11:15:58.236Z,20.87
2022-12-17T11:18:48.853Z,20.27
2022-12-17T11:21:38.135Z,20.57
2022-12-17T11:24:43.410Z,19.70
2022-12-17T11:27:31.290Z,20.80
2022-12-17T11:30:30.932Z,20.57
2022-12-17T11:33:35.415Z,19.23
2022-12-17T11:36:39.129Z,20.13
2022-12-17T11:39:31.467Z,19.90
2022-12-17T11:42:21.344Z,20.30
2022-12-17T11:45:13.898Z,20.47
2022-12-17T11:48:06.531Z,20.97
2022-12-17T11:50:56.831Z,19.73
2022-12-17T11:53:47.741Z,19.40
2022-12-17T11:56:38.533Z,19.63
2022-12-17T11:59:23.343Z,19.77
2022-12-17T12:02:11.302Z,19.37
2022-12-17T12:04:59.017Z,19.33
2022-12-17T12:08:00.089Z,19.10
2022-12-17T12:10:58.127Z,19.77
2022-12-17T12:13:45.940Z,19.60
2022-12-17T12:16:51.669Z,20.43
2022-12-17T12:20:12.274Z,19.33
2022-12-17T12:23:17.357Z,19.40
2022-12-17T12:26:20.953Z,21.47
2022-12-17T12:29:29.138Z,20.60
2022-12-17T12:32:24.559Z,18.47
2022-12-17T12:35:10.801Z,18.83
2022-12-17T12:37:56.089Z,20.97
2022-12-17T12:40:46.538Z,20.87
2022-12-17T12:43:51.425Z,21.00
2022-12-17T12:46:40.261Z,21.10
2022-12-17T12:49:31.266Z,20.63
2022-12-17T12:52:17.435Z,20.60
2022-12-17T12:55:05.514Z,20.67
2022-12-17T12:57:55.092Z,21.00
2022-12-17T13:00:46.335Z,21.23
2022-12-17T13:03:48.376Z,20.90
2022-12-17T13:06:34.781Z,21.00
2022-12-17T13:09:22.653Z,21.73
2022-12-17T13:11:48.846Z,21.47
2022-12-17T13:14:16.959Z,22.20
2022-12-17T13:16:48.984Z,20.87
2022-12-17T13:19:35.581Z,21.57
2022-12-17T13:22:12.201Z,21.90
2022-12-17T13:24:38.673Z,20.20
2022-12-17T13:27:04.922Z,20.63
2022-12-17T13:29:35.994Z,21.67
2022-12-17T13:32:20.138Z,20.10
2022-12-17T13:34:52.236Z,20.70
2022-12-17T13:37:21.457Z,19.97
2022-12-17T13:40:01.974Z,20.53
2022-12-17T13:42:29.327Z,22.13
2022-12-17T13:44:55.841Z,19.57
2022-12-17T13:47:23.775Z,20.57
2022-12-17T13:50:31.715Z,20.77
2022-12-17T13:52:40.856Z,18.93
2022-12-17T13:55:09.251Z,20.00
2022-12-17T13:57:36.495Z,20.47
2022-12-17T14:00:03.314Z,21.10
2022-12-17T14:02:39.319Z,20.37
2022-12-17T14:05:08.321Z,20.23
2022-12-17T14:07:37.961Z,17.93
2022-12-17T14:10:04.704Z,19.40
2022-12-17T14:12:34.729Z,19.07
2022-12-17T14:15:02.566Z,19.20
2022-12-17T14:17:30.282Z,19.20
2022-12-17T14:20:01.488Z,17.73
2022-12-17T14:22:54.424Z,19.70
2022-12-17T14:25:22.524Z,18.87
2022-12-17T14:28:00.454Z,18.97
2022-12-17T14:30:26.844Z,20.43
2022-12-17T14:32:53.609Z,20.07
2022-12-17T14:35:27.591Z,20.77
2022-12-17T14:37:53.984Z,20.40
2022-12-17T14:40:20.914Z,21.60
2022-12-17T14:42:47.602Z,19.83
2022-12-17T14:45:14.294Z,20.33
2022-12-17T14:47:40.675Z,21.00
2022-12-17T14:50:13.036Z,20.80
2022-12-17T14:52:49.776Z,21.33
2022-12-17T14:55:31.513Z,20.53
2022-12-17T14:58:12.837Z,20.57
2022-12-17T15:00:44.252Z,19.70
2022-12-17T15:03:11.787Z,21.30
2022-12-17T15:05:38.789Z,20.73
2022-12-17T15:08:05.403Z,20.77
2022-12-17T15:10:31.754Z,21.23
2022-12-17T15:12:58.022Z,23.03
2022-12-17T15:15:24.356Z,21.43
2022-12-17T15:17:50.654Z,20.87
2022-12-17T15:20:17.933Z,20.57
2022-12-17T15:22:44.421Z,20.90
2022-12-17T15:25:14.469Z,21.10
2022-12-17T15:27:40.908Z,20.93
2022-12-17T15:30:07.847Z,21.93
2022-12-17T15:32:34.138Z,21.13
2022-12-17T15:35:00.446Z,20.83
2022-12-17T15:37:26.761Z,19.33
2022-12-17T15:39:53.073Z,19.83
2022-12-17T15:42:37.807Z,20.03
2022-12-17T15:45:04.348Z,19.23
2022-12-17T15:47:30.665Z,19.90
2022-12-17T15:49:56.975Z,19.83
2022-12-17T15:52:23.780Z,21.17
2022-12-17T15:54:50.096Z,20.43
2022-12-17T15:57:18.730Z,20.67
2022-12-17T15:59:45.482Z,21.43
2022-12-17T16:02:12.294Z,20.83
2022-12-17T16:04:38.905Z,20.90
2022-12-17T16:07:05.761Z,21.50
2022-12-17T16:09:32.131Z,21.67
2022-12-17T16:11:58.606Z,22.37
2022-12-17T16:14:25.094Z,20.87
2022-12-17T16:16:51.653Z,21.23
2022-12-17T16:19:18.039Z,21.67
2022-12-17T16:21:46.974Z,21.10
2022-12-17T16:24:13.508Z,20.77
2022-12-17T16:26:39.877Z,23.27
2022-12-17T16:29:06.672Z,23.20
2022-12-17T16:31:33.377Z,24.43
2022-12-17T16:33:59.787Z,23.40
2022-12-17T16:36:26.152Z,23.27
2022-12-17T16:38:53.238Z,23.83
2022-12-17T16:41:20.348Z,23.30
2022-12-17T16:43:47.087Z,22.83
2022-12-17T16:46:31.802Z,22.37
2022-12-17T16:48:59.067Z,21.27
2022-12-17T16:51:28.788Z,23.50
2022-12-17T16:53:55.743Z,22.17
2022-12-17T16:56:23.497Z,24.27
2022-12-17T16:58:50.368Z,23.30
2022-12-17T17:01:24.013Z,26.07
2022-12-17T17:03:50.956Z,24.67
2022-12-17T17:06:17.926Z,25.13
2022-12-17T17:08:44.497Z,24.83
2022-12-17T17:11:21.471Z,26.00
2022-12-17T17:13:49.048Z,24.70
2022-12-17T17:16:16.302Z,25.97
2022-12-17T17:18:42.989Z,26.13
2022-12-17T17:21:28.215Z,23.73
2022-12-17T17:23:57.259Z,23.70
2022-12-17T17:26:23.783Z,23.40
2022-12-17T17:28:50.136Z,21.83
2022-12-17T17:31:17.031Z,23.30
2022-12-17T17:33:46.565Z,21.83
2022-12-17T17:36:15.617Z,22.77
2022-12-17T17:38:42.864Z,22.67
2022-12-17T17:41:10.423Z,21.47
2022-12-17T17:43:36.720Z,21.23
2022-12-17T17:46:06.104Z,20.50
2022-12-17T17:48:33.635Z,19.63
2022-12-17T17:51:01.152Z,20.10
2022-12-17T17:53:27.479Z,20.27
2022-12-17T17:55:53.871Z,21.03
2022-12-17T17:58:20.199Z,21.70
2022-12-17T18:00:46.593Z,22.87
2022-12-17T18:03:12.969Z,22.93
2022-12-17T18:05:41.641Z,21.50
2022-12-17T18:08:09.001Z,21.47
2022-12-17T18:10:35.305Z,22.63
2022-12-17T18:13:24.884Z,23.03
2022-12-17T18:15:51.277Z,20.00
2022-12-17T18:18:17.617Z,19.50
2022-12-17T18:20:45.329Z,18.70
2022-12-17T18:25:37.833Z,18.53
2022-12-17T18:28:04.396Z,18.87
2022-12-17T18:30:30.633Z,19.47
2022-12-17T18:32:56.863Z,20.00
2022-12-17T18:35:24.009Z,18.93
2022-12-17T18:37:50.274Z,18.80
2022-12-17T18:40:16.660Z,20.63
2022-12-17T18:43:01.703Z,19.23
2022-12-17T18:45:27.991Z,19.63
2022-12-17T18:47:54.217Z,19.77
2022-12-17T18:50:20.499Z,20.13
2022-12-17T18:52:46.724Z,19.90
2022-12-17T18:55:14.301Z,20.90
2022-12-17T18:57:40.579Z,20.20
2022-12-17T19:00:12.296Z,20.87
2022-12-17T19:02:38.583Z,20.70
2022-12-17T19:05:05.108Z,21.20
2022-12-17T19:07:31.321Z,21.10
2022-12-17T19:09:57.616Z,19.63
2022-12-17T19:12:23.838Z,20.00
2022-12-17T19:14:51.121Z,19.50
2022-12-17T19:17:17.333Z,18.23
2022-12-17T19:19:43.628Z,18.63
2022-12-17T19:22:09.880Z,19.83
2022-12-17T19:24:36.127Z,19.93
2022-12-17T19:27:02.595Z,20.57
2022-12-17T19:29:28.883Z,19.30
2022-12-17T19:31:55.201Z,20.30
2022-12-17T19:34:21.687Z,19.03
2022-12-17T19:36:47.956Z,18.37
2022-12-17T19:39:15.512Z,18.23
2022-12-17T19:41:41.748Z,20.37
2022-12-17T19:44:10.585Z,19.80
2022-12-17T19:46:36.808Z,19.73
2022-12-17T19:49:03.533Z,18.80
2022-12-17T19:51:33.209Z,19.17
2022-12-17T19:54:03.429Z,18.97
2022-12-17T19:56:33.126Z,19.30
2022-12-17T19:59:04.782Z,19.37
2022-12-17T20:01:32.493Z,19.37
2022-12-17T20:03:59.296Z,18.33
2022-12-17T20:06:27.134Z,19.80
2022-12-17T20:08:53.618Z,19.43
2022-12-17T20:11:35.544Z,19.63
2022-12-17T20:14:03.892Z,20.60
2022-12-17T20:16:31.415Z,19.83
2022-12-17T20:19:01.196Z,21.33
2022-12-17T20:21:27.490Z,19.67
2022-12-17T20:23:53.718Z,18.73
2022-12-17T20:26:20.053Z,20.67
2022-12-17T20:28:46.583Z,19.47
2022-12-17T20:31:13.050Z,18.67
2022-12-17T20:33:39.396Z,18.70
2022-12-17T20:36:05.681Z,19.03
2022-12-17T20:38:32.230Z,17.83
2022-12-17T20:40:58.522Z,16.73
2022-12-17T20:43:24.987Z,17.20
2022-12-17T20:45:52.019Z,16.90
2022-12-17T20:48:18.349Z,16.87
2022-12-17T20:50:44.997Z,17.87
2022-12-17T20:53:11.259Z,17.87
2022-12-17T20:55:37.492Z,17.17
2022-12-17T20:58:05.279Z,18.27
2022-12-17T21:00:31.540Z,18.37
2022-12-17T21:02:58.078Z,18.20
2022-12-17T21:05:27.027Z,18.03
2022-12-17T21:07:53.264Z,17.53
2022-12-17T21:10:19.587Z,17.83
2022-12-17T21:13:05.239Z,19.47
2022-12-17T21:15:31.647Z,18.53
2022-12-17T21:17:57.876Z,19.33
2022-12-17T21:20:24.624Z,18.33
2022-12-17T21:22:51.530Z,19.90
2022-12-17T21:25:17.792Z,19.90
2022-12-17T21:27:44.698Z,19.43
2022-12-17T21:30:13.306Z,22.33
2022-12-17T21:32:39.731Z,20.33
2022-12-17T21:35:06.208Z,21.07
2022-12-17T21:37:32.430Z,18.80
2022-12-17T21:40:00.064Z,18.70
2022-12-17T21:42:45.044Z,19.00
2022-12-17T21:45:11.285Z,19.60
2022-12-17T21:47:37.716Z,19.10
2022-12-17T21:50:04.056Z,17.73
2022-12-17T21:52:30.323Z,17.90
2022-12-17T21:54:56.547Z,18.43
2022-12-17T21:57:22.831Z,17.53
2022-12-17T21:59:49.124Z,17.30
2022-12-17T22:02:17.583Z,16.70
2022-12-17T22:04:44.094Z,16.27
2022-12-17T22:07:17.289Z,16.33
2022-12-17T22:10:11.870Z,16.67
2022-12-17T22:12:50.332Z,16.53
2022-12-17T22:15:16.544Z,17.07
2022-12-17T22:17:43.793Z,15.97
2022-12-17T22:20:10.384Z,18.20
2022-12-17T22:22:36.771Z,18.20
2022-12-17T22:25:08.152Z,17.40
2022-12-17T22:27:35.588Z,17.93
2022-12-17T22:30:20.408Z,18.17
2022-12-17T22:33:34.091Z,18.33
2022-12-17T22:37:53.702Z,18.40
2022-12-17T22:42:22.556Z,19.10
2022-12-17T22:44:35.587Z,18.00
2022-12-17T22:44:51.229Z,19.03
2022-12-17T22:47:16.256Z,19.20
2022-12-17T22:49:43.772Z,20.03
2022-12-17T22:52:10.801Z,18.97
2022-12-17T22:54:37.247Z,18.90
2022-12-17T22:57:36.797Z,18.53
2022-12-17T22:59:50.139Z,17.53
2022-12-17T23:02:16.798Z,17.60
2022-12-17T23:04:43.153Z,17.27
2022-12-17T23:07:09.387Z,17.87
2022-12-17T23:09:35.634Z,17.13
2022-12-17T23:12:21.882Z,17.33
2022-12-17T23:14:48.119Z,15.87
2022-12-17T23:17:14.369Z,16.33
2022-12-17T23:19:40.806Z,16.80
2022-12-17T23:22:07.076Z,17.17
2022-12-17T23:24:33.317Z,16.70
2022-12-17T23:26:59.570Z,17.53
2022-12-17T23:29:25.783Z,17.40
2022-12-17T23:31:52.057Z,17.37
2022-12-17T23:34:18.295Z,17.17
2022-12-17T23:36:44.522Z,17.10
2022-12-17T23:39:11.114Z,18.43
2022-12-17T23:41:37.433Z,18.57
2022-12-17T23:44:03.726Z,17.60
2022-12-17T23:46:30.362Z,18.13
2022-12-17T23:48:56.665Z,17.57
2022-12-17T23:51:24.148Z,18.97
2022-12-17T23:53:50.400Z,16.70
2022-12-17T23:56:21.014Z,16.13
2022-12-17T23:58:47.880Z,15.67
